METAR OBSERVATIONS
Looking Back 6 hours

  • KPBF 172153Z AUTO 33008KT 10SM FEW020 OVC110 07/02 A2992 RMK AO2 SLP130 T00720022 =
  • KPBF 172053Z AUTO 31011KT 10SM SCT020 OVC110 07/02 A2990 RMK AO2 SLP124 T00720022 56002 =
  • KPBF 172036Z AUTO 31010KT 10SM SCT020 OVC110 07/02 A2990 RMK AO2 T00720022 =
  • KPBF 171953Z AUTO 32010KT 10SM OVC018 07/03 A2990 RMK AO2 SLP124 T00720028 =
  • KPBF 171853Z AUTO 32008KT 10SM OVC019 07/03 A2989 RMK AO2 SLP122 T00670028 =
  • KPBF 171753Z AUTO 34008KT 10SM OVC015 06/03 A2990 RMK AO2 SLP126 60001 T00610028 10061 20028 50018 =
  • KPBF 171727Z AUTO 33010KT 10SM OVC016 06/03 A2991 RMK AO2 T00610028 =
  • KPBF 171653Z AUTO 34006KT 10SM BKN014 OVC020 06/03 A2991 RMK AO2 SLP127 T00560033 =
    ________________________________________